South Bound Brook, New Jersey
Current Conditions -  °F | °C
As of 11:53 PM on Monday 22 Dec 2014 (Local Time) from KSMQ Reporting Station
Light Rain Light Rain  
Wind Chill: 44°   Ceiling: 800
Heat Index: 44°   Visibility: 6mi
Dew Point: 41°   Wind: 0mph
Humidity: 89%   Direction: NA
Pressure: 30.12"   Gusts: NA
Location:  40.55°N, 74.53°W
Report Text: KSMQ 230453Z AUTO 00000KT 6SM -RA BR OVC008 07/05 A3012 RMK AO2 RAE06B49 SLP201 P0000 T00670050 400670011
Loading
Personal Weather Stations






























Interactive Weather Map New forecast layout! Learn more

10-Day Weather Forecast

Advertisements
Track Severe Weather on mobile